createdAt,value
2017-09-18T00:00:58.570Z,29.10
2017-09-18T00:02:01.064Z,28.02
2017-09-18T00:03:04.319Z,26.60
2017-09-18T00:04:07.106Z,25.05
2017-09-18T00:05:10.375Z,27.83
2017-09-18T00:06:12.888Z,32.45
2017-09-18T00:07:15.362Z,31.87
2017-09-18T00:08:17.839Z,30.45
2017-09-18T00:09:20.326Z,29.60
2017-09-18T00:10:22.812Z,28.50
2017-09-18T00:11:26.086Z,29.37
2017-09-18T00:12:30.069Z,32.47
2017-09-18T00:13:32.572Z,30.70
2017-09-18T00:14:35.833Z,31.52
2017-09-18T00:15:38.319Z,33.17
2017-09-18T00:16:41.712Z,32.45
2017-09-18T00:17:44.976Z,35.92
2017-09-18T00:18:48.238Z,36.75
2017-09-18T00:19:50.851Z,37.20
2017-09-18T00:20:54.458Z,34.72
2017-09-18T00:21:57.084Z,30.40
2017-09-18T00:22:59.589Z,29.08
2017-09-18T00:24:02.073Z,28.20
2017-09-18T00:25:04.622Z,28.27
2017-09-18T00:26:07.091Z,27.05
2017-09-18T00:27:09.581Z,26.85
2017-09-18T00:28:12.815Z,28.33
2017-09-18T00:29:16.068Z,25.67
2017-09-18T00:30:18.576Z,27.48
2017-09-18T00:31:21.066Z,25.37
2017-09-18T00:32:23.543Z,24.33
2017-09-18T00:33:26.164Z,22.45
2017-09-18T00:34:29.414Z,26.62
2017-09-18T00:35:31.918Z,25.40
2017-09-18T00:36:34.467Z,22.25
2017-09-18T00:37:37.781Z,23.00
2017-09-18T00:38:40.279Z,22.75
2017-09-18T00:39:43.650Z,23.58
2017-09-18T00:40:46.124Z,20.75
2017-09-18T00:41:48.615Z,20.33
2017-09-18T00:42:52.605Z,22.30
2017-09-18T00:43:55.128Z,23.38
2017-09-18T00:44:57.630Z,28.25
2017-09-18T00:46:00.133Z,32.70
2017-09-18T00:47:03.377Z,34.95
2017-09-18T00:48:05.888Z,31.08
2017-09-18T00:49:09.148Z,33.30
2017-09-18T00:50:12.408Z,32.88
2017-09-18T00:51:14.894Z,30.25
2017-09-18T00:52:17.364Z,32.88
2017-09-18T00:53:20.632Z,35.58
2017-09-18T00:54:23.256Z,35.72
2017-09-18T00:55:25.771Z,35.83
2017-09-18T00:56:28.267Z,34.78
2017-09-18T00:57:31.555Z,32.42
2017-09-18T00:58:34.829Z,31.83
2017-09-18T00:59:38.071Z,27.77
2017-09-18T01:00:41.204Z,28.50
2017-09-18T01:01:43.680Z,29.02
2017-09-18T01:02:46.184Z,28.35
2017-09-18T01:03:48.813Z,29.30
2017-09-18T01:04:51.293Z,28.98
2017-09-18T01:05:53.907Z,33.47
2017-09-18T01:06:57.150Z,35.08
2017-09-18T01:07:59.635Z,35.63
2017-09-18T01:09:02.126Z,34.75
2017-09-18T01:10:05.394Z,32.20
2017-09-18T01:11:07.882Z,35.28
2017-09-18T01:12:11.155Z,36.65
2017-09-18T01:13:14.413Z,37.22
2017-09-18T01:14:16.901Z,38.08
2017-09-18T01:15:20.156Z,38.83
2017-09-18T01:16:22.632Z,38.67
2017-09-18T01:17:25.151Z,38.90
2017-09-18T01:18:27.638Z,38.10
2017-09-18T01:19:30.120Z,36.63
2017-09-18T01:20:32.612Z,34.58
2017-09-18T01:21:35.559Z,36.60
2017-09-18T01:22:38.164Z,34.58
2017-09-18T01:23:41.407Z,35.72
2017-09-18T01:24:43.902Z,35.10
2017-09-18T01:25:47.151Z,37.47
2017-09-18T01:26:49.648Z,34.42
2017-09-18T01:27:52.154Z,34.70
2017-09-18T01:28:54.686Z,37.83
2017-09-18T01:29:58.055Z,36.17
2017-09-18T01:31:00.541Z,37.85
2017-09-18T01:32:03.787Z,38.78
2017-09-18T01:33:06.321Z,38.40
2017-09-18T01:34:08.807Z,40.92
2017-09-18T01:35:11.314Z,40.70
2017-09-18T01:36:13.804Z,44.00
2017-09-18T01:37:16.327Z,42.40
2017-09-18T01:38:18.886Z,39.22
2017-09-18T01:39:21.431Z,43.13
2017-09-18T01:40:23.956Z,42.15
2017-09-18T01:41:27.198Z,41.58
2017-09-18T01:42:29.788Z,40.72
2017-09-18T01:43:32.305Z,40.83
2017-09-18T01:44:34.779Z,40.72
2017-09-18T01:45:37.341Z,42.38
2017-09-18T01:46:39.835Z,42.22
2017-09-18T01:47:42.327Z,40.47
2017-09-18T01:48:45.032Z,41.00
2017-09-18T01:49:47.535Z,40.72
2017-09-18T01:50:50.023Z,36.58
2017-09-18T01:51:52.530Z,38.38
2017-09-18T01:52:55.007Z,37.83
2017-09-18T01:53:57.508Z,35.60
2017-09-18T01:54:59.992Z,34.65
2017-09-18T01:56:03.319Z,34.53
2017-09-18T01:57:05.923Z,30.95
2017-09-18T01:58:08.493Z,29.33
2017-09-18T01:59:12.519Z,31.27
2017-09-18T02:00:15.821Z,28.38
2017-09-18T02:01:18.344Z,29.40
2017-09-18T02:02:20.863Z,27.05
2017-09-18T02:03:23.344Z,26.02
2017-09-18T02:04:25.848Z,28.98
2017-09-18T02:05:28.352Z,27.10
2017-09-18T02:06:30.840Z,28.38
2017-09-18T02:07:33.353Z,28.10
2017-09-18T02:08:35.955Z,30.80
2017-09-18T02:09:38.439Z,31.12
2017-09-18T02:10:40.930Z,32.13
2017-09-18T02:11:43.412Z,32.08
2017-09-18T02:12:46.668Z,31.30
2017-09-18T02:13:49.161Z,31.50
2017-09-18T02:14:52.433Z,31.70
2017-09-18T02:15:56.431Z,30.33
2017-09-18T02:16:59.159Z,31.87
2017-09-18T02:18:01.651Z,31.48
2017-09-18T02:19:04.131Z,31.55
2017-09-18T02:20:06.647Z,30.23
2017-09-18T02:21:09.127Z,29.20
2017-09-18T02:22:11.728Z,30.25
2017-09-18T02:23:14.222Z,30.55
2017-09-18T02:24:17.455Z,32.72
2017-09-18T02:25:19.977Z,31.90
2017-09-18T02:26:22.462Z,33.05
2017-09-18T02:27:24.954Z,32.38
2017-09-18T02:28:27.539Z,30.37
2017-09-18T02:29:30.040Z,31.60
2017-09-18T02:30:33.318Z,31.05
2017-09-18T02:31:37.230Z,30.65
2017-09-18T02:32:39.715Z,31.20
2017-09-18T02:33:42.189Z,30.00
2017-09-18T02:34:44.691Z,28.55
2017-09-18T02:35:47.349Z,29.12
2017-09-18T02:36:49.831Z,30.37
2017-09-18T02:37:53.198Z,29.60
2017-09-18T02:38:56.463Z,28.05
2017-09-18T02:39:58.943Z,27.00
2017-09-18T02:41:01.426Z,30.02
2017-09-18T02:42:03.922Z,27.92
2017-09-18T02:43:06.407Z,28.08
2017-09-18T02:44:08.913Z,27.13
2017-09-18T02:45:12.175Z,29.52
2017-09-18T02:46:14.667Z,27.62
2017-09-18T02:47:17.928Z,30.52
2017-09-18T02:48:20.416Z,27.17
2017-09-18T02:49:24.411Z,28.48
2017-09-18T02:50:27.785Z,29.45
2017-09-18T02:51:31.034Z,28.65
2017-09-18T02:52:33.523Z,26.30
2017-09-18T02:53:36.024Z,25.65
2017-09-18T02:54:38.580Z,25.48
2017-09-18T02:55:42.572Z,26.37
2017-09-18T02:56:45.077Z,25.60
2017-09-18T02:57:48.403Z,24.55
2017-09-18T02:58:50.876Z,26.67
2017-09-18T02:59:53.359Z,25.73
2017-09-18T03:00:55.847Z,23.75
2017-09-18T03:01:59.101Z,26.90
2017-09-18T03:03:01.571Z,25.95
2017-09-18T03:04:04.087Z,28.25
2017-09-18T03:05:06.566Z,27.83
2017-09-18T03:06:09.231Z,28.77
2017-09-18T03:07:11.712Z,25.67
2017-09-18T03:08:14.356Z,27.70
2017-09-18T03:09:16.831Z,27.13
2017-09-18T03:10:19.311Z,25.67
2017-09-18T03:11:21.790Z,26.52
2017-09-18T03:12:24.269Z,28.12
2017-09-18T03:13:27.685Z,26.90
2017-09-18T03:14:30.935Z,27.75
2017-09-18T03:15:33.457Z,27.05
2017-09-18T03:16:35.927Z,28.42
2017-09-18T03:17:38.424Z,28.33
2017-09-18T03:18:40.915Z,28.73
2017-09-18T03:19:43.383Z,27.35
2017-09-18T03:20:46.713Z,28.23
2017-09-18T03:21:49.216Z,29.08
2017-09-18T03:22:51.779Z,29.60
2017-09-18T03:23:54.294Z,29.23
2017-09-18T03:24:56.859Z,27.10
2017-09-18T03:25:59.349Z,28.38
2017-09-18T03:27:01.964Z,27.80
2017-09-18T03:28:04.431Z,28.30
2017-09-18T03:29:07.683Z,26.10
2017-09-18T03:30:10.169Z,27.73
2017-09-18T03:31:12.680Z,24.40
2017-09-18T03:32:15.154Z,25.48
2017-09-18T03:33:17.640Z,25.70
2017-09-18T03:34:20.118Z,25.65
2017-09-18T03:35:22.591Z,23.12
2017-09-18T03:36:25.090Z,24.87
2017-09-18T03:37:27.943Z,24.55
2017-09-18T03:38:31.183Z,23.12
2017-09-18T03:39:33.820Z,24.92
2017-09-18T03:40:36.306Z,25.42
2017-09-18T03:41:38.775Z,22.65
2017-09-18T03:42:41.324Z,23.92
2017-09-18T03:43:43.986Z,23.98
2017-09-18T03:44:46.484Z,25.12
2017-09-18T03:45:49.011Z,24.52
2017-09-18T03:46:51.520Z,24.23
2017-09-18T03:47:54.188Z,23.67
2017-09-18T03:48:56.748Z,23.70
2017-09-18T03:49:59.390Z,24.02
2017-09-18T03:51:01.946Z,23.35
2017-09-18T03:52:04.531Z,24.95
2017-09-18T03:53:07.007Z,24.08
2017-09-18T03:54:09.487Z,25.33
2017-09-18T03:55:11.990Z,25.35
2017-09-18T03:56:15.301Z,24.65
2017-09-18T03:57:17.869Z,23.58
2017-09-18T03:58:20.361Z,22.73
2017-09-18T03:59:23.411Z,24.30
2017-09-18T04:00:25.980Z,24.17
2017-09-18T04:01:28.481Z,24.83
2017-09-18T04:02:30.975Z,24.52
2017-09-18T04:03:33.447Z,24.02
2017-09-18T04:04:36.715Z,26.15
2017-09-18T04:05:39.222Z,24.75
2017-09-18T04:06:41.893Z,26.37
2017-09-18T04:07:44.376Z,24.27
2017-09-18T04:08:46.876Z,21.40
2017-09-18T04:09:50.924Z,22.87
2017-09-18T04:10:53.399Z,21.73
2017-09-18T04:11:55.959Z,23.62
2017-09-18T04:12:58.458Z,22.92
2017-09-18T04:14:01.066Z,23.98
2017-09-18T04:15:04.371Z,25.02
2017-09-18T04:16:06.913Z,22.98
2017-09-18T04:17:10.177Z,23.00
2017-09-18T04:18:14.167Z,23.40
2017-09-18T04:19:16.647Z,24.27
2017-09-18T04:20:19.167Z,21.45
2017-09-18T04:21:21.770Z,21.83
2017-09-18T04:22:24.390Z,21.52
2017-09-18T04:23:27.002Z,24.05
2017-09-18T04:24:29.479Z,24.33
2017-09-18T04:25:31.996Z,23.25
2017-09-18T04:26:34.469Z,23.20
2017-09-18T04:27:36.960Z,25.02
2017-09-18T04:28:39.484Z,24.73
2017-09-18T04:29:41.967Z,26.23
2017-09-18T04:30:44.475Z,25.77
2017-09-18T04:31:48.465Z,24.23
2017-09-18T04:32:51.708Z,27.15
2017-09-18T04:33:54.211Z,25.27
2017-09-18T04:34:56.682Z,28.80
2017-09-18T04:35:59.936Z,27.52
2017-09-18T04:37:02.448Z,26.87
2017-09-18T04:38:05.707Z,27.05
2017-09-18T04:39:08.990Z,28.77
2017-09-18T04:40:12.989Z,30.15
2017-09-18T04:41:15.473Z,29.75
2017-09-18T04:42:19.246Z,30.98
2017-09-18T04:43:21.731Z,31.30
2017-09-18T04:44:24.274Z,31.40
2017-09-18T04:45:26.921Z,34.03
2017-09-18T04:46:29.444Z,32.50
2017-09-18T04:47:32.726Z,33.03
2017-09-18T04:48:36.645Z,31.90
2017-09-18T04:49:39.126Z,30.62
2017-09-18T04:50:41.602Z,30.85
2017-09-18T04:51:44.368Z,29.02
2017-09-18T04:52:46.876Z,27.62
2017-09-18T04:53:49.356Z,28.75
2017-09-18T04:54:52.611Z,29.60
2017-09-18T04:55:56.671Z,25.35
2017-09-18T04:56:59.176Z,25.42
2017-09-18T04:58:01.663Z,27.27
2017-09-18T04:59:04.163Z,27.45
2017-09-18T05:00:06.646Z,25.30
2017-09-18T05:01:09.140Z,28.75
2017-09-18T05:02:11.636Z,27.95
2017-09-18T05:03:14.883Z,27.40
2017-09-18T05:04:18.134Z,25.75
2017-09-18T05:05:20.684Z,25.95
2017-09-18T05:06:23.474Z,25.42
2017-09-18T05:07:26.314Z,23.23
2017-09-18T05:08:29.721Z,22.30
2017-09-18T05:09:32.253Z,22.83
2017-09-18T05:10:34.739Z,22.30
2017-09-18T05:11:38.049Z,24.10
2017-09-18T05:12:40.541Z,24.87
2017-09-18T05:13:43.123Z,23.98
2017-09-18T05:14:46.426Z,23.77
2017-09-18T05:15:48.896Z,23.70
2017-09-18T05:16:52.168Z,25.52
2017-09-18T05:17:54.644Z,23.38
2017-09-18T05:18:57.912Z,26.30
2017-09-18T05:20:00.517Z,25.60
2017-09-18T05:21:03.389Z,26.10
2017-09-18T05:22:05.870Z,24.70
2017-09-18T05:23:08.425Z,24.65
2017-09-18T05:24:11.066Z,25.75
2017-09-18T05:25:14.375Z,25.45
2017-09-18T05:26:16.941Z,26.05
2017-09-18T05:27:20.714Z,26.23
2017-09-18T05:28:25.260Z,25.55
2017-09-18T05:29:28.929Z,26.33
2017-09-18T05:30:32.521Z,26.40
2017-09-18T05:31:35.367Z,25.37
2017-09-18T05:32:38.651Z,26.12
2017-09-18T05:33:41.143Z,26.23
2017-09-18T05:34:43.630Z,27.25
2017-09-18T05:35:46.119Z,26.10
2017-09-18T05:36:48.621Z,26.30
2017-09-18T05:37:51.096Z,27.00
2017-09-18T05:38:54.414Z,28.23
2017-09-18T05:39:56.897Z,26.23
2017-09-18T05:40:59.442Z,28.02
2017-09-18T05:42:02.031Z,28.58
2017-09-18T05:43:04.743Z,28.92
2017-09-18T05:44:07.216Z,28.08
2017-09-18T05:45:10.469Z,28.85
2017-09-18T05:46:12.990Z,27.73
2017-09-18T05:47:15.501Z,27.83
2017-09-18T05:48:17.980Z,27.98
2017-09-18T05:49:20.479Z,25.55
2017-09-18T05:50:23.056Z,24.98
2017-09-18T05:51:25.684Z,23.85
2017-09-18T05:52:28.168Z,22.30
2017-09-18T05:53:31.477Z,23.60
2017-09-18T05:54:33.960Z,24.10
2017-09-18T05:55:36.503Z,25.05
2017-09-18T05:56:38.976Z,23.27
2017-09-18T05:57:41.492Z,24.85
2017-09-18T05:58:43.964Z,26.30
2017-09-18T05:59:47.208Z,24.85
2017-09-18T06:00:49.755Z,24.10
2017-09-18T06:01:52.247Z,23.38
2017-09-18T06:02:54.741Z,23.25
2017-09-18T06:03:57.250Z,22.50
2017-09-18T06:04:59.728Z,23.12
2017-09-18T06:06:02.234Z,23.50
2017-09-18T06:07:04.945Z,23.60
2017-09-18T06:08:07.436Z,22.80
2017-09-18T06:09:09.976Z,22.42
2017-09-18T06:10:12.542Z,21.90
2017-09-18T06:11:15.018Z,23.70
2017-09-18T06:12:18.013Z,24.45
2017-09-18T06:13:20.624Z,25.85
2017-09-18T06:14:24.059Z,25.17
2017-09-18T06:15:26.737Z,26.62
2017-09-18T06:16:29.215Z,24.98
2017-09-18T06:17:31.695Z,24.27
2017-09-18T06:18:35.024Z,24.15
2017-09-18T06:19:37.499Z,23.75
2017-09-18T06:20:40.000Z,25.70
2017-09-18T06:21:42.479Z,24.58
2017-09-18T06:22:44.982Z,21.90
2017-09-18T06:23:47.549Z,24.33
2017-09-18T06:24:50.039Z,24.67
2017-09-18T06:25:52.535Z,22.77
2017-09-18T06:26:55.020Z,21.70
2017-09-18T06:27:58.352Z,21.65
2017-09-18T06:29:00.849Z,22.77
2017-09-18T06:30:03.467Z,20.48
2017-09-18T06:31:07.070Z,19.73
2017-09-18T06:32:09.584Z,20.55
2017-09-18T06:33:12.186Z,20.48
2017-09-18T06:34:14.878Z,19.55
2017-09-18T06:35:17.523Z,18.00
2017-09-18T06:36:20.049Z,18.50
2017-09-18T06:37:22.519Z,17.75
2017-09-18T06:38:25.897Z,18.40
2017-09-18T06:39:28.378Z,15.68
2017-09-18T06:40:31.640Z,17.02
2017-09-18T06:41:34.192Z,17.55
2017-09-18T06:42:36.771Z,18.83
2017-09-18T06:43:39.304Z,18.50
2017-09-18T06:44:41.884Z,17.60
2017-09-18T06:45:44.376Z,17.00
2017-09-18T06:46:46.887Z,18.60
2017-09-18T06:47:49.371Z,16.58
2017-09-18T06:48:51.917Z,16.40
2017-09-18T06:49:54.431Z,16.92
2017-09-18T06:50:56.955Z,17.42
2017-09-18T06:51:59.516Z,16.62
2017-09-18T06:53:02.140Z,16.55
2017-09-18T06:54:04.668Z,15.15
2017-09-18T06:55:07.523Z,16.55
2017-09-18T06:56:10.386Z,15.18
2017-09-18T06:57:12.967Z,14.02
2017-09-18T06:58:15.447Z,15.43
2017-09-18T06:59:18.008Z,16.05
2017-09-18T07:00:20.620Z,16.70
2017-09-18T07:01:23.889Z,14.18
2017-09-18T07:02:26.359Z,15.55
2017-09-18T07:03:28.838Z,16.85
2017-09-18T07:04:37.028Z,16.65
2017-09-18T07:05:40.295Z,17.17
2017-09-18T07:06:42.784Z,16.45
2017-09-18T07:07:45.328Z,15.73
2017-09-18T07:08:47.846Z,16.70
2017-09-18T07:09:51.573Z,16.45
2017-09-18T07:10:55.451Z,16.85
2017-09-18T07:11:58.512Z,15.93
2017-09-18T07:13:01.922Z,14.98
2017-09-18T07:14:04.443Z,17.25
2017-09-18T07:15:07.191Z,15.23
2017-09-18T07:16:09.664Z,14.77
2017-09-18T07:17:12.219Z,15.57
2017-09-18T07:18:14.731Z,14.73
2017-09-18T07:19:18.108Z,14.40
2017-09-18T07:20:21.523Z,14.75
2017-09-18T07:21:24.087Z,14.68
2017-09-18T07:22:26.574Z,13.45
2017-09-18T07:23:29.059Z,13.30
2017-09-18T07:24:31.576Z,14.57
2017-09-18T07:25:34.082Z,12.20
2017-09-18T07:26:36.664Z,12.02
2017-09-18T07:27:39.139Z,11.85
2017-09-18T07:28:41.622Z,13.52
2017-09-18T07:29:44.928Z,14.07
2017-09-18T07:30:47.501Z,11.55
2017-09-18T07:31:50.061Z,12.20
2017-09-18T07:32:52.560Z,13.55
2017-09-18T07:33:55.095Z,11.65
2017-09-18T07:34:57.620Z,11.55
2017-09-18T07:36:00.116Z,11.85
2017-09-18T07:37:04.083Z,12.32
2017-09-18T07:38:06.566Z,12.07
2017-09-18T07:39:09.870Z,12.20
2017-09-18T07:40:12.440Z,11.60
2017-09-18T07:41:14.956Z,12.25
2017-09-18T07:42:17.468Z,12.32
2017-09-18T07:43:25.676Z,11.77
2017-09-18T07:44:31.465Z,10.90
2017-09-18T07:45:34.748Z,11.82
2017-09-18T07:46:37.381Z,11.93
2017-09-18T07:47:39.931Z,11.05
2017-09-18T07:48:42.420Z,12.10
2017-09-18T07:49:44.912Z,12.02
2017-09-18T07:50:47.424Z,11.68
2017-09-18T07:51:49.991Z,11.35
2017-09-18T07:52:53.232Z,12.00
2017-09-18T07:53:55.729Z,12.90
2017-09-18T07:54:59.024Z,11.80
2017-09-18T07:56:01.592Z,11.68
2017-09-18T07:57:04.121Z,11.25
2017-09-18T07:58:06.611Z,13.15
2017-09-18T07:59:09.262Z,10.60
2017-09-18T08:00:12.578Z,11.18
2017-09-18T08:01:15.143Z,12.00
2017-09-18T08:02:17.621Z,12.18
2017-09-18T08:03:20.123Z,11.25
2017-09-18T08:04:23.458Z,11.32
2017-09-18T08:05:25.946Z,12.30
2017-09-18T08:06:28.491Z,13.73
2017-09-18T08:07:30.971Z,12.15
2017-09-18T08:08:33.456Z,11.50
2017-09-18T08:09:36.086Z,11.77
2017-09-18T08:10:38.584Z,11.63
2017-09-18T08:11:41.117Z,14.20
2017-09-18T08:12:43.602Z,13.82
2017-09-18T08:13:46.092Z,13.90
2017-09-18T08:14:48.615Z,13.25
2017-09-18T08:15:51.099Z,13.48
2017-09-18T08:16:53.588Z,15.55
2017-09-18T08:17:56.110Z,15.10
2017-09-18T08:18:58.588Z,15.52
2017-09-18T08:20:01.094Z,16.35
2017-09-18T08:21:03.608Z,14.87
2017-09-18T08:22:06.177Z,15.07
2017-09-18T08:23:08.663Z,15.02
2017-09-18T08:24:11.177Z,14.85
2017-09-18T08:25:14.694Z,13.40
2017-09-18T08:26:17.203Z,14.35
2017-09-18T08:27:19.827Z,13.93
2017-09-18T08:28:22.315Z,13.45
2017-09-18T08:29:24.822Z,13.77
2017-09-18T08:30:27.343Z,15.45
2017-09-18T08:31:29.826Z,14.45
2017-09-18T08:32:32.329Z,13.88
2017-09-18T08:33:34.812Z,15.40
2017-09-18T08:34:38.126Z,14.40
2017-09-18T08:35:40.634Z,14.40
2017-09-18T08:36:43.957Z,13.45
2017-09-18T08:37:46.427Z,12.85
2017-09-18T08:38:49.000Z,13.48
2017-09-18T08:39:51.478Z,14.52
2017-09-18T08:40:54.118Z,14.05
2017-09-18T08:41:56.620Z,14.93
2017-09-18T08:42:59.094Z,14.05
2017-09-18T08:44:01.597Z,12.60
2017-09-18T08:45:04.850Z,14.27
2017-09-18T08:46:07.375Z,14.50
2017-09-18T08:47:09.891Z,13.85
2017-09-18T08:48:12.378Z,15.18
2017-09-18T08:49:15.622Z,14.80
2017-09-18T08:50:18.119Z,14.13
2017-09-18T08:51:21.488Z,14.23
2017-09-18T08:52:23.991Z,14.82
2017-09-18T08:53:26.563Z,13.90
2017-09-18T08:54:29.147Z,13.45
2017-09-18T08:55:31.657Z,13.95
2017-09-18T08:56:34.958Z,14.98
2017-09-18T08:57:38.218Z,16.25
2017-09-18T08:58:40.698Z,15.57
2017-09-18T08:59:44.013Z,14.10
2017-09-18T09:00:46.575Z,16.30
2017-09-18T09:01:49.144Z,14.82
2017-09-18T09:02:51.660Z,14.80
2017-09-18T09:03:54.147Z,15.57
2017-09-18T09:04:57.406Z,15.63
2017-09-18T09:05:59.923Z,15.02
2017-09-18T09:07:02.487Z,14.80
2017-09-18T09:08:05.019Z,14.30
2017-09-18T09:09:07.515Z,15.48
2017-09-18T09:10:10.089Z,16.73
2017-09-18T09:11:12.653Z,15.95
2017-09-18T09:12:15.147Z,16.40
2017-09-18T09:13:17.687Z,18.25
2017-09-18T09:14:20.154Z,18.48
2017-09-18T09:15:22.687Z,15.60
2017-09-18T09:16:26.002Z,16.55
2017-09-18T09:17:28.484Z,17.70
2017-09-18T09:18:31.032Z,15.40
2017-09-18T09:19:33.507Z,17.90
2017-09-18T09:20:35.995Z,15.93
2017-09-18T09:21:38.529Z,16.48
2017-09-18T09:22:41.093Z,16.45
2017-09-18T09:23:43.568Z,15.60
2017-09-18T09:24:46.126Z,15.40
2017-09-18T09:25:48.693Z,15.88
2017-09-18T09:26:51.231Z,16.23
2017-09-18T09:27:53.711Z,16.25
2017-09-18T09:28:56.256Z,16.42
2017-09-18T09:29:59.576Z,16.00
2017-09-18T09:31:02.150Z,15.05
2017-09-18T09:32:04.624Z,16.85
2017-09-18T09:33:07.123Z,15.68
2017-09-18T09:34:09.634Z,15.60
2017-09-18T09:35:12.515Z,15.48
2017-09-18T09:36:15.119Z,16.75
2017-09-18T09:37:17.799Z,17.45
2017-09-18T09:38:20.368Z,15.70
2017-09-18T09:39:23.638Z,15.43
2017-09-18T09:40:26.169Z,16.17
2017-09-18T09:41:28.665Z,16.05
2017-09-18T09:42:31.162Z,15.90
2017-09-18T09:43:33.655Z,16.20
2017-09-18T09:44:36.887Z,15.23
2017-09-18T09:45:39.408Z,15.43
2017-09-18T09:46:41.896Z,14.75
2017-09-18T09:47:44.416Z,16.45
2017-09-18T09:48:47.667Z,15.93
2017-09-18T09:49:50.229Z,15.73
2017-09-18T09:50:52.812Z,17.55
2017-09-18T09:51:55.630Z,16.92
2017-09-18T09:52:58.131Z,16.60
2017-09-18T09:54:00.621Z,16.40
2017-09-18T09:55:03.101Z,16.33
2017-09-18T09:56:06.519Z,16.55
2017-09-18T09:57:09.036Z,16.23
2017-09-18T09:58:11.531Z,16.02
2017-09-18T09:59:14.795Z,17.87
2017-09-18T10:00:18.116Z,16.67
2017-09-18T10:01:20.679Z,16.67
2017-09-18T10:02:23.168Z,16.95
2017-09-18T10:03:25.662Z,17.55
2017-09-18T10:04:28.184Z,17.20
2017-09-18T10:05:30.663Z,17.37
2017-09-18T10:06:33.178Z,17.25
2017-09-18T10:07:36.423Z,19.37
2017-09-18T10:08:39.055Z,18.40
2017-09-18T10:09:41.624Z,17.33
2017-09-18T10:10:45.104Z,17.37
2017-09-18T10:11:47.677Z,17.02
2017-09-18T10:12:50.150Z,17.55
2017-09-18T10:13:52.653Z,17.08
2017-09-18T10:14:55.669Z,17.23
2017-09-18T10:15:58.930Z,18.58
2017-09-18T10:17:02.195Z,17.35
2017-09-18T10:18:04.687Z,16.37
2017-09-18T10:19:07.952Z,16.58
2017-09-18T10:20:10.557Z,15.02
2017-09-18T10:21:13.366Z,16.40
2017-09-18T10:22:15.885Z,16.40
2017-09-18T10:23:19.154Z,15.60
2017-09-18T10:24:21.658Z,16.25
2017-09-18T10:25:24.172Z,16.00
2017-09-18T10:26:26.663Z,15.88
2017-09-18T10:27:30.085Z,14.82
2017-09-18T10:28:32.722Z,15.57
2017-09-18T10:29:35.975Z,15.60
2017-09-18T10:30:38.596Z,13.98
2017-09-18T10:31:41.165Z,13.90
2017-09-18T10:32:43.664Z,14.50
2017-09-18T10:33:46.172Z,15.05
2017-09-18T10:34:49.445Z,14.77
2017-09-18T10:35:51.988Z,15.43
2017-09-18T10:36:54.502Z,15.00
2017-09-18T10:37:57.176Z,13.35
2017-09-18T10:38:59.648Z,14.93
2017-09-18T10:40:02.252Z,14.00
2017-09-18T10:41:04.745Z,15.10
2017-09-18T10:42:08.007Z,15.45
2017-09-18T10:43:10.513Z,14.80
2017-09-18T10:44:13.847Z,14.30
2017-09-18T10:45:16.918Z,14.05
2017-09-18T10:46:19.410Z,13.52
2017-09-18T10:47:21.890Z,13.40
2017-09-18T10:48:25.167Z,14.05
2017-09-18T10:49:28.457Z,14.02
2017-09-18T10:50:31.736Z,12.82
2017-09-18T10:51:34.211Z,12.32
2017-09-18T10:52:38.652Z,12.18
2017-09-18T10:53:41.187Z,12.02
2017-09-18T10:54:44.456Z,12.35
2017-09-18T10:55:46.930Z,10.80
2017-09-18T10:56:50.271Z,10.45
2017-09-18T10:57:52.777Z,10.45
2017-09-18T10:58:56.092Z,9.80
2017-09-18T10:59:58.665Z,9.82
2017-09-18T11:01:01.160Z,10.57
2017-09-18T11:02:03.650Z,10.10
2017-09-18T11:03:06.836Z,10.82
2017-09-18T11:04:09.324Z,9.85
2017-09-18T11:05:11.825Z,9.32
2017-09-18T11:06:14.315Z,10.85
2017-09-18T11:07:16.854Z,9.52
2017-09-18T11:08:20.016Z,10.40
2017-09-18T11:09:22.506Z,9.35
2017-09-18T11:10:25.046Z,10.23
2017-09-18T11:11:27.554Z,9.98
2017-09-18T11:12:30.053Z,9.13
2017-09-18T11:13:33.301Z,9.98
2017-09-18T11:14:35.795Z,10.02
2017-09-18T11:15:39.117Z,10.63
2017-09-18T11:16:41.593Z,9.90
2017-09-18T11:17:44.176Z,9.85
2017-09-18T11:18:46.661Z,9.18
2017-09-18T11:19:49.171Z,8.02
2017-09-18T11:20:51.693Z,10.90
2017-09-18T11:21:54.175Z,9.82
2017-09-18T11:22:57.439Z,10.77
2017-09-18T11:23:59.959Z,10.13
2017-09-18T11:25:02.443Z,8.95
2017-09-18T11:26:04.940Z,8.85
2017-09-18T11:27:08.223Z,8.52
2017-09-18T11:28:10.703Z,9.57
2017-09-18T11:29:13.970Z,9.40
2017-09-18T11:30:17.197Z,9.57
2017-09-18T11:31:19.699Z,9.77
2017-09-18T11:32:22.204Z,9.70
2017-09-18T11:33:25.464Z,8.70
2017-09-18T11:34:28.027Z,9.80
2017-09-18T11:35:30.595Z,11.07
2017-09-18T11:36:33.113Z,10.30
2017-09-18T11:37:35.683Z,9.18
2017-09-18T11:38:38.223Z,11.10
2017-09-18T11:39:41.483Z,10.07
2017-09-18T11:40:43.993Z,10.00
2017-09-18T11:41:46.510Z,10.68
2017-09-18T11:42:48.991Z,9.95
2017-09-18T11:43:52.283Z,9.55
2017-09-18T11:44:55.552Z,10.27
2017-09-18T11:45:58.210Z,10.50
2017-09-18T11:47:00.724Z,9.23
2017-09-18T11:48:03.240Z,9.32
2017-09-18T11:49:06.574Z,10.52
2017-09-18T11:50:09.147Z,8.98
2017-09-18T11:51:11.634Z,10.95
2017-09-18T11:52:14.172Z,9.50
2017-09-18T11:53:18.206Z,10.77
2017-09-18T11:54:20.759Z,9.98
2017-09-18T11:55:23.275Z,9.45
2017-09-18T11:56:26.693Z,10.00
2017-09-18T11:57:29.314Z,10.15
2017-09-18T11:58:31.826Z,9.32
2017-09-18T11:59:34.330Z,11.25
2017-09-18T12:00:36.885Z,9.98
2017-09-18T12:01:39.381Z,9.75
2017-09-18T12:02:42.045Z,10.32
2017-09-18T12:03:44.599Z,9.82
2017-09-18T12:04:47.128Z,10.73
2017-09-18T12:05:49.618Z,10.80
2017-09-18T12:06:52.163Z,10.73
2017-09-18T12:07:55.199Z,10.85
2017-09-18T12:09:04.201Z,10.55
2017-09-18T12:10:07.512Z,11.63
2017-09-18T12:11:10.772Z,10.95
2017-09-18T12:12:13.295Z,11.10
2017-09-18T12:13:15.839Z,10.93
2017-09-18T12:14:19.133Z,11.98
2017-09-18T12:15:21.706Z,12.82
2017-09-18T12:16:24.188Z,12.48
2017-09-18T12:17:26.693Z,12.40
2017-09-18T12:18:29.171Z,11.95
2017-09-18T12:19:31.770Z,13.65
2017-09-18T12:20:34.436Z,11.95
2017-09-18T12:21:36.935Z,12.23
2017-09-18T12:22:39.468Z,13.65
2017-09-18T12:23:41.968Z,13.93
2017-09-18T12:24:44.472Z,14.05
2017-09-18T12:25:47.792Z,13.23
2017-09-18T12:26:50.291Z,13.27
2017-09-18T12:27:52.978Z,14.50
2017-09-18T12:28:56.079Z,12.00
2017-09-18T12:29:59.345Z,14.70
2017-09-18T12:31:01.855Z,14.57
2017-09-18T12:32:04.371Z,14.05
2017-09-18T12:33:06.886Z,13.25
2017-09-18T12:34:09.373Z,13.62
2017-09-18T12:35:11.855Z,12.23
2017-09-18T12:36:14.378Z,13.35
2017-09-18T12:37:16.867Z,14.02
2017-09-18T12:38:19.478Z,14.02
2017-09-18T12:39:22.756Z,14.55
2017-09-18T12:40:25.359Z,13.40
2017-09-18T12:41:27.874Z,14.57
2017-09-18T12:42:30.392Z,13.45
2017-09-18T12:43:32.872Z,14.23
2017-09-18T12:44:35.395Z,12.30
2017-09-18T12:45:38.649Z,13.18
2017-09-18T12:46:41.171Z,13.05
2017-09-18T12:47:43.654Z,13.48
2017-09-18T12:48:46.207Z,12.10
2017-09-18T12:49:48.687Z,12.98
2017-09-18T12:50:51.236Z,12.20
2017-09-18T12:51:53.730Z,11.52
2017-09-18T12:52:56.209Z,12.00
2017-09-18T12:53:58.933Z,12.32
2017-09-18T12:55:01.422Z,12.65
2017-09-18T12:56:03.915Z,11.57
2017-09-18T12:57:06.402Z,12.90
2017-09-18T12:58:09.738Z,12.30
2017-09-18T12:59:12.277Z,10.43
2017-09-18T13:00:14.792Z,11.23
2017-09-18T13:01:17.317Z,11.90
2017-09-18T13:02:19.805Z,9.73
2017-09-18T13:03:22.288Z,9.35
2017-09-18T13:04:24.751Z,9.73
2017-09-18T13:05:27.243Z,8.80
2017-09-18T13:06:30.500Z,9.32
2017-09-18T13:07:33.021Z,8.93
2017-09-18T13:08:35.504Z,8.93
2017-09-18T13:09:37.983Z,9.15
2017-09-18T13:10:40.458Z,7.82
2017-09-18T13:11:42.995Z,9.25
2017-09-18T13:12:46.347Z,9.50
2017-09-18T13:13:49.631Z,10.20
2017-09-18T13:14:52.893Z,9.05
2017-09-18T13:15:55.402Z,8.63
2017-09-18T13:16:57.905Z,9.70
2017-09-18T13:18:00.451Z,8.40
2017-09-18T13:19:02.918Z,8.98
2017-09-18T13:20:05.546Z,8.00
2017-09-18T13:21:10.952Z,7.60
2017-09-18T13:22:14.242Z,6.90
2017-09-18T13:23:18.333Z,6.82
2017-09-18T13:24:21.630Z,5.65
2017-09-18T13:25:24.139Z,5.60
2017-09-18T13:26:27.376Z,5.93
2017-09-18T13:27:30.054Z,5.20
2017-09-18T13:28:32.572Z,5.37
2017-09-18T13:29:35.121Z,4.60
2017-09-18T13:30:37.856Z,5.00